Time;durP1;ratioP1;P1;durP2;ratioP2;P2;SDS_P1;SDS_P2;PMS_P1;PMS_P2;Temp;Humidity;BMP_temperature;BMP_pressure;BME280_temperature;BME280_humidity;BME280_pressure;Samples;Min_cycle;Max_cycle;Signal;HPM_P1;HPM_P2
2023/03/19 00:00:17;;;;;;;2.63;1.70;;;;;;;10.69;100.00;100868.16;4806118;29;20482;-75
2023/03/19 00:02:50;;;;;;;3.80;1.90;;;;;;;10.66;100.00;100876.72;4804529;29;20038;-73
2023/03/19 00:05:16;;;;;;;3.00;1.73;;;;;;;10.63;100.00;100871.75;4820645;29;20030;-75
2023/03/19 00:07:42;;;;;;;3.22;1.98;;;;;;;10.67;100.00;100872.13;4822664;29;20026;-77
2023/03/19 00:10:08;;;;;;;2.80;1.75;;;;;;;10.66;100.00;100865.91;4806047;29;20455;-77
2023/03/19 00:12:33;;;;;;;3.28;1.90;;;;;;;10.67;100.00;100866.72;4806671;29;20038;-75
2023/03/19 00:14:58;;;;;;;2.88;1.73;;;;;;;10.64;100.00;100863.41;4806472;29;20059;-74
2023/03/19 00:17:24;;;;;;;2.50;1.60;;;;;;;10.66;100.00;100870.47;4818734;29;20026;-77
2023/03/19 00:19:50;;;;;;;2.50;1.67;;;;;;;10.62;100.00;100870.91;4823805;29;20057;-77
2023/03/19 00:22:15;;;;;;;3.05;1.75;;;;;;;10.62;100.00;100870.09;4806537;29;20026;-75
2023/03/19 00:24:40;;;;;;;2.72;1.75;;;;;;;10.60;100.00;100875.72;4806100;29;20047;-76
2023/03/19 00:27:06;;;;;;;2.20;1.63;;;;;;;10.62;100.00;100880.91;4816494;29;20039;-74
2023/03/19 00:29:32;;;;;;;2.90;1.75;;;;;;;10.60;100.00;100886.56;4826161;29;20189;-74
2023/03/19 00:31:57;;;;;;;3.17;1.90;;;;;;;10.61;100.00;100888.22;4807980;29;20060;-75
2023/03/19 00:34:23;;;;;;;1.90;1.80;;;;;;;10.57;100.00;100889.72;4807228;29;20039;-76
2023/03/19 00:36:48;;;;;;;4.30;2.13;;;;;;;10.57;100.00;100881.59;4825552;29;20042;-75
2023/03/19 00:39:14;;;;;;;3.92;2.00;;;;;;;10.56;100.00;100879.94;4824389;29;20034;-74
2023/03/19 00:41:39;;;;;;;4.30;2.20;;;;;;;10.55;100.00;100881.00;4814806;29;20075;-76
2023/03/19 00:44:05;;;;;;;2.72;1.90;;;;;;;10.60;100.00;100885.75;4805197;29;20191;-74
2023/03/19 00:46:31;;;;;;;2.53;1.92;;;;;;;10.58;100.00;100879.72;4804885;29;20039;-75
2023/03/19 00:48:57;;;;;;;3.58;2.35;;;;;;;10.57;100.00;100889.72;4787876;29;20054;-76
2023/03/19 00:51:24;;;;;;;3.45;2.30;;;;;;;10.54;100.00;100883.94;4800857;29;20061;-77
2023/03/19 00:53:51;;;;;;;2.80;1.85;;;;;;;10.62;100.00;100886.34;4807300;29;20037;-75
2023/03/19 00:56:17;;;;;;;6.00;2.38;;;;;;;10.60;100.00;100891.16;4805865;29;20031;-74
2023/03/19 00:58:43;;;;;;;5.07;2.50;;;;;;;10.55;100.00;100881.00;4805027;29;20027;-74
2023/03/19 01:01:11;;;;;;;3.60;2.60;;;;;;;10.54;100.00;100884.75;4802592;29;20030;-73
2023/03/19 01:03:37;;;;;;;4.43;2.20;;;;;;;10.53;100.00;100887.69;4805362;29;20031;-77
2023/03/19 01:06:03;;;;;;;2.80;2.30;;;;;;;10.55;100.00;100893.69;4805818;29;20627;-75
2023/03/19 01:08:29;;;;;;;4.65;2.55;;;;;;;10.48;100.00;100885.66;4805764;29;20512;-74
2023/03/19 01:10:55;;;;;;;5.30;2.72;;;;;;;10.52;100.00;100881.41;4804992;29;20031;-75
2023/03/19 01:13:20;;;;;;;3.38;2.50;;;;;;;10.50;100.00;100888.94;4805646;29;20387;-77
2023/03/19 01:15:53;;;;;;;2.78;2.47;;;;;;;10.49;100.00;100887.28;4806747;29;20023;-77
2023/03/19 01:18:18;;;;;;;2.65;2.40;;;;;;;10.51;100.00;100887.06;4806917;29;20094;-76
2023/03/19 01:20:44;;;;;;;4.07;2.75;;;;;;;10.51;100.00;100885.19;4804673;29;20660;-74
2023/03/19 01:23:09;;;;;;;3.83;2.50;;;;;;;10.51;100.00;100893.31;4806022;29;20498;-75
2023/03/19 01:25:35;;;;;;;3.60;2.47;;;;;;;10.54;100.00;100883.94;4823627;29;20379;-75
2023/03/19 01:28:01;;;;;;;4.35;2.65;;;;;;;10.50;100.00;100885.44;4823352;29;20034;-74
2023/03/19 01:30:29;;;;;;;4.00;2.50;;;;;;;10.48;100.00;100891.06;4818520;29;20035;-77
2023/03/19 01:32:59;;;;;;;3.70;2.70;;;;;;;10.52;100.00;100891.44;4805192;29;20416;-75
2023/03/19 01:35:28;;;;;;;7.40;2.63;;;;;;;10.47;100.00;100894.81;4822011;29;20378;-77
2023/03/19 01:37:56;;;;;;;4.90;2.55;;;;;;;10.49;100.00;100894.59;4822765;29;20049;-75
2023/03/19 01:40:23;;;;;;;2.83;2.50;;;;;;;10.49;100.00;100883.75;4818769;29;20077;-75
2023/03/19 01:43:13;;;;;;;3.78;2.55;;;;;;;10.49;100.00;100889.16;4804861;29;20035;-74
2023/03/19 01:45:41;;;;;;;4.28;2.78;;;;;;;10.43;100.00;100880.06;4806796;29;20090;-75
2023/03/19 01:48:18;;;;;;;3.92;2.80;;;;;;;10.44;100.00;100882.53;4823363;29;20381;-74
2023/03/19 01:50:44;;;;;;;4.65;2.83;;;;;;;10.43;100.00;100886.31;4815491;29;20043;-74
2023/03/19 01:53:11;;;;;;;5.25;3.03;;;;;;;10.45;100.00;100886.91;4804951;29;20034;-75
2023/03/19 01:55:39;;;;;;;3.53;2.60;;;;;;;10.46;100.00;100898.56;4804755;29;20035;-74
2023/03/19 01:58:05;;;;;;;3.75;2.70;;;;;;;10.44;100.00;100884.44;4811898;29;20039;-73
2023/03/19 02:00:37;;;;;;;3.40;2.83;;;;;;;10.43;100.00;100888.19;4816317;29;20091;-75
2023/03/19 02:03:03;;;;;;;4.18;2.90;;;;;;;10.41;100.00;100891.09;4805923;29;20034;-77
2023/03/19 02:05:29;;;;;;;4.70;3.25;;;;;;;10.45;100.00;100888.81;4804810;29;20438;-73
2023/03/19 02:07:58;;;;;;;5.32;3.05;;;;;;;10.41;100.00;100885.69;4805798;29;20368;-76
2023/03/19 02:10:25;;;;;;;4.05;3.10;;;;;;;10.43;100.00;100891.72;4809027;29;20038;-75
2023/03/19 02:12:51;;;;;;;4.25;3.08;;;;;;;10.45;100.00;100886.91;4805339;29;20467;-77
2023/03/19 02:15:19;;;;;;;4.88;3.10;;;;;;;10.42;100.00;100881.94;4803416;29;20038;-77
2023/03/19 02:17:46;;;;;;;3.90;3.25;;;;;;;10.42;100.00;100889.25;4805469;29;20031;-75
2023/03/19 02:20:41;;;;;;;5.97;3.47;;;;;;;10.43;100.00;100889.03;4804963;29;20035;-77
2023/03/19 02:23:21;;;;;;;5.80;3.53;;;;;;;10.42;100.00;100886.53;4807218;29;20058;-74
2023/03/19 02:25:47;;;;;;;4.95;3.50;;;;;;;10.40;100.00;100894.88;4805865;29;20062;-76
2023/03/19 02:28:16;;;;;;;5.82;3.45;;;;;;;10.35;100.00;100894.72;4804735;29;20065;-75
2023/03/19 02:30:43;;;;;;;3.92;3.22;;;;;;;10.32;100.00;100892.41;4803804;29;20069;-74
2023/03/19 02:33:13;;;;;;;4.90;3.60;;;;;;;10.32;100.00;100895.13;4806052;29;20042;-76
2023/03/19 02:35:43;;;;;;;5.28;3.47;;;;;;;10.32;100.00;100897.81;4822422;29;20038;-75
2023/03/19 02:38:10;;;;;;;6.15;4.05;;;;;;;10.30;100.00;100897.22;4822625;29;20091;-76
2023/03/19 02:40:43;;;;;;;6.97;4.13;;;;;;;10.29;100.00;100888.28;4818803;29;20038;-76
2023/03/19 02:43:08;;;;;;;5.85;4.10;;;;;;;10.31;100.00;100896.19;4807592;29;20037;-76
2023/03/19 02:45:34;;;;;;;6.13;3.92;;;;;;;10.31;100.00;100896.19;4822484;29;20413;-76
2023/03/19 02:47:59;;;;;;;5.43;4.05;;;;;;;10.31;100.00;100904.31;4822312;29;20463;-77
2023/03/19 02:50:26;;;;;;;5.80;3.88;;;;;;;10.29;100.00;100899.09;4820378;29;20095;-74
2023/03/19 02:52:51;;;;;;;5.50;3.78;;;;;;;10.34;100.00;100901.19;4803623;29;20121;-73
2023/03/19 02:55:17;;;;;;;4.65;3.65;;;;;;;10.32;100.00;100905.94;4806132;29;20032;-78
2023/03/19 02:57:44;;;;;;;5.88;4.05;;;;;;;10.28;100.00;100897.44;4812042;29;20046;-74
2023/03/19 03:00:12;;;;;;;5.47;4.00;;;;;;;10.26;100.00;100904.13;4803916;29;20031;-74
2023/03/19 03:02:43;;;;;;;6.55;3.88;;;;;;;10.27;100.00;100903.91;4800325;29;20118;-73
2023/03/19 03:05:18;;;;;;;4.80;4.20;;;;;;;10.27;100.00;100905.78;4803854;29;20038;-74
2023/03/19 03:07:57;;;;;;;7.35;4.40;;;;;;;10.28;100.00;100915.53;4803075;29;20422;-75
2023/03/19 03:10:30;;;;;;;5.30;4.15;;;;;;;10.27;100.00;100916.59;4802864;29;20035;-76
2023/03/19 03:13:06;;;;;;;7.43;3.90;;;;;;;10.32;100.00;100915.94;4805902;29;20027;-77
2023/03/19 03:15:50;;;;;;;6.03;4.20;;;;;;;10.29;100.00;100903.69;4807593;29;20429;-76
2023/03/19 03:18:35;;;;;;;6.72;4.40;;;;;;;10.34;100.00;100909.31;4807392;29;20476;-76
2023/03/19 03:21:11;;;;;;;6.22;4.10;;;;;;;10.26;100.00;100901.41;4807674;29;20038;-76
2023/03/19 03:23:50;;;;;;;4.80;4.13;;;;;;;10.22;100.00;100898.34;4807239;29;20058;-74
2023/03/19 03:26:28;;;;;;;5.22;4.22;;;;;;;10.28;100.00;100904.72;4806977;29;20027;-75
2023/03/19 03:29:08;;;;;;;8.52;4.22;;;;;;;10.28;100.00;100910.97;4806937;29;20034;-74
2023/03/19 03:31:46;;;;;;;5.10;4.30;;;;;;;10.25;100.00;100906.00;4806586;29;20083;-77
2023/03/19 03:34:23;;;;;;;5.88;4.07;;;;;;;10.28;100.00;100907.41;4813414;29;20427;-75
2023/03/19 03:37:00;;;;;;;6.00;4.57;;;;;;;10.21;100.00;100909.38;4824768;29;20348;-77
2023/03/19 03:39:36;;;;;;;7.25;4.50;;;;;;;10.20;100.00;100900.41;4825075;29;20431;-76
2023/03/19 03:42:12;;;;;;;6.72;4.65;;;;;;;10.19;100.00;100903.34;4809951;29;20027;-76
2023/03/19 03:44:48;;;;;;;6.47;4.13;;;;;;;10.16;100.00;100909.19;4806949;29;20416;-77
2023/03/19 03:47:24;;;;;;;5.72;4.50;;;;;;;10.08;100.00;100911.16;4806855;29;20397;-77
2023/03/19 03:50:01;;;;;;;6.50;4.72;;;;;;;10.08;100.00;100913.84;4818223;29;20054;-77
2023/03/19 03:52:37;;;;;;;7.18;4.43;;;;;;;10.09;100.00;100922.78;4807882;29;20529;-73
2023/03/19 03:55:18;;;;;;;5.55;4.28;;;;;;;10.04;100.00;100922.59;4806366;29;20087;-76
2023/03/19 03:57:52;;;;;;;7.70;4.70;;;;;;;10.09;100.00;100928.19;4806679;29;20030;-74
2023/03/19 04:00:26;;;;;;;7.85;4.70;;;;;;;10.04;100.00;100926.16;4806346;29;20141;-74
2023/03/19 04:03:01;;;;;;;6.93;4.50;;;;;;;10.00;100.00;100922.22;4808952;29;20407;-74
2023/03/19 04:05:36;;;;;;;5.00;4.50;;;;;;;9.98;100.00;100928.88;4824761;29;20022;-74
2023/03/19 04:08:09;;;;;;;7.82;4.53;;;;;;;9.93;100.00;100921.44;4824466;29;20034;-75
2023/03/19 04:10:44;;;;;;;6.07;4.70;;;;;;;9.84;100.00;100920.03;4809704;29;20031;-75
2023/03/19 04:13:19;;;;;;;6.75;4.88;;;;;;;9.84;100.00;100925.44;4806263;29;20030;-74
2023/03/19 04:15:54;;;;;;;5.60;4.70;;;;;;;9.80;100.00;100916.13;4806421;29;20031;-77
2023/03/19 04:18:27;;;;;;;5.57;4.40;;;;;;;9.81;100.00;100923.19;4805504;29;20066;-77
2023/03/19 04:21:02;;;;;;;6.40;4.57;;;;;;;9.73;100.00;100917.00;4806250;29;20031;-75
2023/03/19 04:23:36;;;;;;;7.95;5.03;;;;;;;9.72;100.00;100920.75;4806055;29;20031;-75
2023/03/19 04:26:12;;;;;;;6.90;4.55;;;;;;;9.72;100.00;100923.47;4806152;29;20400;-76
2023/03/19 04:28:45;;;;;;;6.30;4.90;;;;;;;9.61;100.00;100923.31;4805704;29;20034;-75
2023/03/19 04:31:15;;;;;;;5.95;4.93;;;;;;;9.59;100.00;100934.34;4805447;29;20074;-75
2023/03/19 04:33:46;;;;;;;5.93;5.32;;;;;;;9.57;100.00;100929.16;4806235;29;20027;-74
2023/03/19 04:36:19;;;;;;;7.37;4.83;;;;;;;9.54;100.00;100918.78;4806113;29;20433;-74
2023/03/19 04:38:50;;;;;;;6.05;4.70;;;;;;;9.58;100.00;100921.88;4805131;29;20111;-76
2023/03/19 04:41:21;;;;;;;6.72;5.00;;;;;;;9.51;100.00;100919.22;4808197;29;20026;-76
2023/03/19 04:43:51;;;;;;;6.07;4.70;;;;;;;9.53;100.00;100929.81;4824136;29;20047;-77
2023/03/19 04:46:22;;;;;;;5.68;4.63;;;;;;;9.52;100.00;100930.84;4824199;29;20038;-75
2023/03/19 04:48:51;;;;;;;5.43;4.90;;;;;;;9.45;100.00;100925.50;4808752;29;20042;-77
2023/03/19 04:51:47;;;;;;;6.75;5.20;;;;;;;9.37;100.00;100923.84;5014209;27;3723899;-78
2023/03/19 04:54:17;;;;;;;;;;;;;;;9.61;100.00;100926.84;5118990;28;20035;-75
2023/03/19 04:56:50;;;;;;;5.10;4.60;;;;;;;9.43;100.00;100929.44;5129375;28;19910;-76
2023/03/19 04:59:23;;;;;;;7.55;5.18;;;;;;;9.39;100.00;100937.97;5128373;27;20043;-76
2023/03/19 05:01:57;;;;;;;5.82;4.35;;;;;;;9.32;100.00;100942.56;5107806;27;20354;-73
2023/03/19 05:04:30;;;;;;;6.40;5.25;;;;;;;9.25;100.00;100930.13;5108377;28;20020;-74
2023/03/19 05:07:06;;;;;;;6.28;4.80;;;;;;;9.28;100.00;100946.72;5115092;28;20033;-75
2023/03/19 05:09:42;;;;;;;8.90;5.40;;;;;;;9.28;100.00;100944.03;5128951;28;20023;-73
2023/03/19 05:12:14;;;;;;;7.47;5.20;;;;;;;9.28;100.00;100952.13;5128347;27;20024;-77
2023/03/19 05:14:45;;;;;;;6.65;5.10;;;;;;;9.28;100.00;100957.53;5119369;28;20075;-75
2023/03/19 05:17:14;;;;;;;7.82;4.97;;;;;;;9.27;100.00;100955.91;5108325;28;20020;-75
2023/03/19 05:19:42;;;;;;;5.97;5.10;;;;;;;9.23;100.00;100957.34;5121052;28;20084;-74
2023/03/19 05:22:08;;;;;;;6.15;5.47;;;;;;;9.17;100.00;100960.91;5115266;27;20027;-74
2023/03/19 05:24:42;;;;;;;8.13;5.57;;;;;;;9.13;100.00;100955.09;5108161;28;20024;-77
2023/03/19 05:27:08;;;;;;;7.78;5.95;;;;;;;9.20;100.00;100953.19;5107830;28;20020;-77
2023/03/19 05:29:34;;;;;;;8.93;6.47;;;;;;;9.18;100.00;100958.00;5108088;28;20023;-74
2023/03/19 05:32:05;;;;;;;8.07;6.05;;;;;;;9.17;100.00;100961.72;5119037;27;20023;-76
2023/03/19 05:34:31;;;;;;;;;;;;;;;9.36;100.00;100965.41;5126065;27;20019;-77
2023/03/19 05:36:56;;;;;;;7.28;5.72;;;;;;;9.16;100.00;100965.50;5128227;27;19953;-75
2023/03/19 05:39:22;;;;;;;5.75;5.18;;;;;;;9.09;100.00;100974.63;5128667;28;20015;-75
2023/03/19 05:41:48;;;;;;;6.63;5.95;;;;;;;9.02;100.00;100971.97;5128393;28;20084;-75
2023/03/19 05:44:16;;;;;;;7.97;5.53;;;;;;;8.96;100.00;100972.81;5128356;28;20030;-75
2023/03/19 05:46:42;;;;;;;8.20;6.03;;;;;;;9.00;100.00;100969.47;5127840;27;20019;-73
2023/03/19 05:49:08;;;;;;;9.05;5.30;;;;;;;8.93;100.00;100981.31;5127316;28;20359;-75
2023/03/19 05:51:34;;;;;;;7.68;5.82;;;;;;;8.91;100.00;100981.53;5128161;28;20047;-73
2023/03/19 05:53:59;;;;;;;7.85;5.72;;;;;;;8.90;100.00;100981.75;5127923;28;20046;-74
2023/03/19 05:56:25;;;;;;;8.25;6.00;;;;;;;8.85;100.00;100985.09;5127980;27;20038;-76
2023/03/19 05:58:51;;;;;;;7.85;5.65;;;;;;;8.89;100.00;100986.31;5128570;28;20020;-75
2023/03/19 06:01:16;;;;;;;8.02;5.55;;;;;;;8.90;100.00;100984.44;5122466;28;20036;-74
2023/03/19 06:03:44;;;;;;;7.55;6.05;;;;;;;8.97;100.00;100982.56;5113890;28;20023;-74
2023/03/19 06:06:09;;;;;;;8.25;6.20;;;;;;;8.95;100.00;100990.88;5114821;28;20031;-76
2023/03/19 06:08:35;;;;;;;9.05;6.03;;;;;;;8.92;100.00;100980.47;5114683;28;20135;-75
2023/03/19 06:11:04;;;;;;;6.80;6.10;;;;;;;8.98;100.00;100995.84;5113856;28;20020;-74
2023/03/19 06:13:29;;;;;;;7.53;5.90;;;;;;;8.99;100.00;101002.91;5114309;28;20054;-75
2023/03/19 06:15:55;;;;;;;9.57;6.65;;;;;;;8.93;100.00;101001.03;5113727;27;20172;-74
2023/03/19 06:18:20;;;;;;;9.82;6.43;;;;;;;8.93;100.00;101003.75;5113546;28;20064;-76
2023/03/19 06:20:46;;;;;;;10.45;6.90;;;;;;;8.94;100.00;101010.81;5114357;28;20367;-75
2023/03/19 06:23:13;;;;;;;7.75;6.50;;;;;;;8.92;100.00;101007.47;5114577;28;20124;-74
2023/03/19 06:25:38;;;;;;;7.93;6.97;;;;;;;8.94;100.00;101008.09;5113980;28;20031;-76
2023/03/19 06:28:05;;;;;;;10.32;7.35;;;;;;;9.01;100.00;101005.38;5113981;28;20359;-77
2023/03/19 06:30:31;;;;;;;9.70;7.00;;;;;;;8.99;100.00;101019.09;5113339;28;20077;-77
2023/03/19 06:32:56;;;;;;;9.30;7.60;;;;;;;8.97;100.00;101015.78;5112286;28;20055;-74
2023/03/19 06:35:24;;;;;;;11.13;8.75;;;;;;;9.05;100.00;101031.75;5113333;28;20510;-74
2023/03/19 06:37:51;;;;;;;9.48;8.00;;;;;;;9.07;100.00;101019.91;5115175;28;20100;-76
2023/03/19 06:40:17;;;;;;;9.57;8.07;;;;;;;9.05;100.00;101026.34;5113674;28;20020;-77
2023/03/19 06:42:46;;;;;;;9.80;8.00;;;;;;;9.07;100.00;101025.31;5113157;28;20020;-75
2023/03/19 06:45:17;;;;;;;9.93;8.10;;;;;;;9.04;100.00;101024.69;5112494;28;20160;-75
2023/03/19 06:47:42;;;;;;;11.80;8.80;;;;;;;9.09;100.00;101034.03;5114911;28;20446;-76
2023/03/19 06:50:12;;;;;;;9.48;8.40;;;;;;;9.12;100.00;101036.28;5094266;28;20055;-74
2023/03/19 06:52:39;;;;;;;10.45;8.77;;;;;;;9.09;100.00;101034.88;5094179;28;20024;-75
2023/03/19 06:55:06;;;;;;;12.93;8.80;;;;;;;9.14;100.00;101039.63;5111240;27;20042;-74
2023/03/19 06:57:32;;;;;;;9.82;8.55;;;;;;;9.16;100.00;101040.25;5113173;28;20028;-74
2023/03/19 07:00:01;;;;;;;10.82;8.63;;;;;;;9.16;100.00;101034.84;5113307;28;20034;-76
2023/03/19 07:02:26;;;;;;;11.35;8.65;;;;;;;9.22;100.00;101036.69;5110993;28;20034;-76
2023/03/19 07:04:52;;;;;;;10.25;8.50;;;;;;;9.20;100.00;101046.88;5105400;28;20032;-74
2023/03/19 07:07:18;;;;;;;11.10;9.25;;;;;;;9.29;100.00;101039.41;5092737;28;20119;-76
2023/03/19 07:09:43;;;;;;;10.52;9.23;;;;;;;9.32;100.00;101044.38;5094132;28;20103;-78
2023/03/19 07:12:09;;;;;;;11.52;9.43;;;;;;;9.35;100.00;101054.75;5092693;28;20055;-77
2023/03/19 07:14:35;;;;;;;11.75;9.75;;;;;;;9.42;100.00;101054.72;5117373;27;20046;-77
2023/03/19 07:17:00;;;;;;;12.10;9.68;;;;;;;9.45;100.00;101048.88;5113232;28;20027;-76
2023/03/19 07:19:26;;;;;;;11.45;9.55;;;;;;;9.46;100.00;101051.38;5112952;28;20110;-77
2023/03/19 07:21:51;;;;;;;12.02;9.65;;;;;;;9.51;100.00;101059.69;5113760;28;20032;-77
2023/03/19 07:24:17;;;;;;;13.48;10.05;;;;;;;9.56;100.00;101059.88;5112807;28;20522;-76
2023/03/19 07:26:42;;;;;;;11.10;9.88;;;;;;;9.61;100.00;101059.22;5114377;28;20031;-75
2023/03/19 07:29:08;;;;;;;11.43;10.07;;;;;;;9.65;100.00;101065.88;5112726;28;20028;-77
2023/03/19 07:31:34;;;;;;;11.63;10.40;;;;;;;9.67;100.00;101074.59;5112524;28;20362;-75
2023/03/19 07:33:59;;;;;;;12.13;10.38;;;;;;;9.69;100.00;101072.53;5112743;27;20434;-76
2023/03/19 07:36:25;;;;;;;11.73;10.38;;;;;;;9.73;100.00;101079.13;5111970;28;20363;-76
2023/03/19 07:38:50;;;;;;;12.77;10.45;;;;;;;9.78;100.00;101074.97;5111614;28;20454;-77
2023/03/19 07:41:16;;;;;;;12.80;9.38;;;;;;;9.83;100.00;101083.25;5113079;28;20035;-77
2023/03/19 07:43:41;;;;;;;14.15;10.05;;;;;;;9.85;100.00;101079.28;5111780;28;20118;-76
2023/03/19 07:46:07;;;;;;;13.27;9.10;;;;;;;9.91;100.00;101081.13;5112097;28;20019;-75
2023/03/19 07:48:32;;;;;;;16.77;9.30;;;;;;;9.93;100.00;101089.03;5113914;28;20396;-77
2023/03/19 07:50:58;;;;;;;16.17;9.45;;;;;;;10.02;100.00;101078.81;5113678;28;20055;-76
2023/03/19 07:53:23;;;;;;;17.65;8.98;;;;;;;10.01;100.00;101080.69;5111987;28;20532;-77
2023/03/19 07:55:49;;;;;;;12.00;8.23;;;;;;;10.09;100.00;101091.25;5113741;28;20055;-77
2023/03/19 07:58:15;;;;;;;15.48;8.18;;;;;;;10.08;100.00;101086.91;5113105;28;20030;-74
2023/03/19 08:00:49;;;;;;;17.70;7.88;;;;;;;10.10;100.00;101090.22;5107437;28;20555;-77
2023/03/19 08:03:17;;;;;;;16.55;7.72;;;;;;;10.07;100.00;101103.31;5092417;28;20031;-74
2023/03/19 08:05:43;;;;;;;13.85;7.53;;;;;;;10.05;100.00;101098.13;5091502;28;20032;-76
2023/03/19 08:08:09;;;;;;;11.73;6.93;;;;;;;9.99;100.00;101098.97;5091658;28;20470;-77
2023/03/19 08:10:35;;;;;;;14.60;7.15;;;;;;;10.00;100.00;101102.53;5091502;28;20020;-75
2023/03/19 08:13:01;;;;;;;22.00;8.25;;;;;;;10.01;100.00;101101.47;5099327;28;20023;-74
2023/03/19 08:15:30;;;;;;;15.65;7.25;;;;;;;10.02;100.00;101109.38;5102265;27;20020;-77
2023/03/19 08:18:02;;;;;;;14.85;8.13;;;;;;;10.04;100.00;101115.41;5091581;28;20382;-74
2023/03/19 08:20:32;;;;;;;15.20;7.70;;;;;;;10.03;100.00;101105.63;5090990;28;20324;-77
2023/03/19 08:23:03;;;;;;;18.90;8.60;;;;;;;9.98;100.00;101110.00;5091035;28;20024;-74
2023/03/19 08:25:31;;;;;;;16.25;7.72;;;;;;;9.97;100.00;101106.50;5096815;28;20031;-73
2023/03/19 08:27:57;;;;;;;21.02;8.82;;;;;;;9.93;100.00;101111.50;5104391;28;20028;-73
2023/03/19 08:30:22;;;;;;;17.23;8.48;;;;;;;10.03;100.00;101119.16;5092358;28;20500;-74
2023/03/19 08:32:49;;;;;;;13.20;8.00;;;;;;;10.10;100.00;101125.38;5091158;28;20023;-73
2023/03/19 08:35:14;;;;;;;16.25;8.60;;;;;;;10.15;100.00;101119.31;5097732;28;20362;-75
2023/03/19 08:37:40;;;;;;;17.15;8.60;;;;;;;10.18;100.00;101128.88;5110751;28;20023;-75
2023/03/19 08:40:06;;;;;;;21.70;8.63;;;;;;;10.20;100.00;101121.38;5110193;28;20031;-75
2023/03/19 08:42:31;;;;;;;16.15;7.20;;;;;;;10.28;100.00;101124.66;5110976;28;20036;-75
2023/03/19 08:44:57;;;;;;;18.08;8.07;;;;;;;10.33;100.00;101131.31;5111674;28;20493;-75
2023/03/19 08:47:26;;;;;;;16.05;7.60;;;;;;;10.39;100.00;101131.28;5111509;28;20019;-75
2023/03/19 08:49:51;;;;;;;20.60;7.38;;;;;;;10.45;100.00;101135.81;5100859;28;20028;-75
2023/03/19 08:52:18;;;;;;;17.02;7.15;;;;;;;10.46;100.00;101137.50;5093008;28;20077;-75
2023/03/19 08:54:43;;;;;;;20.45;6.90;;;;;;;10.44;100.00;101133.34;5113329;28;20024;-75
2023/03/19 08:57:20;;;;;;;19.88;7.30;;;;;;;10.45;100.00;101143.13;5112478;28;20458;-75
2023/03/19 08:59:58;;;;;;;15.80;6.60;;;;;;;10.45;100.00;101145.81;5110771;28;20421;-75
2023/03/19 09:02:39;;;;;;;17.10;6.35;;;;;;;10.41;100.00;101150.00;5107322;28;20027;-75
2023/03/19 09:05:27;;;;;;;17.75;6.07;;;;;;;10.46;100.00;101140.19;5110988;28;20019;-77
2023/03/19 09:07:57;;;;;;;15.43;6.30;;;;;;;10.46;100.00;101147.47;5108014;28;20032;-76
2023/03/19 09:10:36;;;;;;;19.25;6.68;;;;;;;10.52;100.00;101152.00;5109297;28;20519;-76
2023/03/19 09:13:06;;;;;;;18.40;6.00;;;;;;;10.51;100.00;101155.78;5111295;28;20031;-76
2023/03/19 09:15:32;;;;;;;18.45;5.95;;;;;;;10.52;100.00;101160.13;5110858;28;20020;-76
2023/03/19 09:17:57;;;;;;;17.85;6.57;;;;;;;10.52;100.00;101156.59;5112494;28;20015;-76
2023/03/19 09:20:23;;;;;;;18.05;5.55;;;;;;;10.52;100.00;101168.25;5107567;28;20023;-76
2023/03/19 09:22:48;;;;;;;20.90;6.18;;;;;;;10.49;100.00;101168.66;5109665;28;20400;-75
2023/03/19 09:25:14;;;;;;;19.60;6.63;;;;;;;10.46;100.00;101161.00;5108775;28;20454;-76
2023/03/19 09:27:39;;;;;;;17.83;6.53;;;;;;;10.44;100.00;101169.31;5111193;28;20103;-75
2023/03/19 09:30:08;;;;;;;16.15;6.70;;;;;;;10.45;100.00;101165.59;5110243;28;20027;-76
2023/03/19 09:32:34;;;;;;;17.52;6.78;;;;;;;10.49;100.00;101174.09;5106272;28;20032;-75
2023/03/19 09:35:00;;;;;;;19.83;7.13;;;;;;;10.56;100.00;101179.47;5095623;28;20023;-76
2023/03/19 09:37:25;;;;;;;19.98;6.50;;;;;;;10.60;100.00;101178.81;5108035;27;20023;-74
2023/03/19 09:39:50;;;;;;;18.30;6.53;;;;;;;10.66;100.00;101179.84;5114982;28;20054;-74
2023/03/19 09:42:29;;;;;;;19.98;6.90;;;;;;;10.73;100.00;101185.19;5114877;28;20015;-74
2023/03/19 09:44:55;;;;;;;20.80;7.60;;;;;;;10.78;100.00;101182.69;5115151;28;20590;-74
2023/03/19 09:47:31;;;;;;;20.83;7.72;;;;;;;10.85;100.00;101188.03;5115639;27;20016;-74
2023/03/19 09:50:01;;;;;;;17.40;6.18;;;;;;;10.86;100.00;101187.81;5114576;28;20139;-75
2023/03/19 09:52:40;;;;;;;20.85;6.25;;;;;;;10.86;100.00;101184.31;5113568;28;20065;-75
2023/03/19 09:55:23;;;;;;;19.30;7.18;;;;;;;10.86;100.00;101187.81;5116227;28;20080;-75
2023/03/19 09:57:52;;;;;;;21.23;7.05;;;;;;;10.89;100.00;101191.97;5116300;28;20024;-75
2023/03/19 10:00:31;;;;;;;19.90;6.82;;;;;;;10.98;100.00;101194.19;5114752;28;20056;-75
2023/03/19 10:03:29;;;;;;;19.27;6.85;;;;;;;11.03;100.00;101190.81;5094108;28;20028;-75
2023/03/19 10:06:11;;;;;;;12.60;5.53;;;;;;;11.05;100.00;101191.44;5100569;28;20038;-75
2023/03/19 10:09:31;;;;;;;14.95;5.47;;;;;;;11.11;100.00;101196.00;5095028;28;20028;-75
2023/03/19 10:12:02;;;;;;;18.17;6.03;;;;;;;11.11;100.00;101198.69;5031726;28;20041;-75
2023/03/19 10:14:33;;;;;;;17.08;5.57;;;;;;;11.14;100.00;101197.41;5091387;28;20035;-75
2023/03/19 10:17:03;;;;;;;20.30;5.68;;;;;;;11.22;100.00;101193.59;5095464;28;20073;-75
2023/03/19 10:19:44;;;;;;;17.13;5.85;;;;;;;11.30;100.00;101194.16;5111459;28;20031;-75
2023/03/19 10:22:17;;;;;;;15.98;5.53;;;;;;;11.34;100.00;101191.84;5113617;27;20024;-75
2023/03/19 10:24:45;;;;;;;15.23;5.25;;;;;;;11.50;100.00;101201.28;5114917;28;20095;-75
2023/03/19 10:27:17;;;;;;;16.60;5.97;;;;;;;11.51;100.00;101198.34;5113525;28;20020;-75
2023/03/19 10:29:45;;;;;;;17.73;5.43;;;;;;;11.62;100.00;101198.66;5113808;27;20088;-75
2023/03/19 10:32:19;;;;;;;21.38;5.60;;;;;;;11.65;100.00;101204.47;5115354;27;20034;-75
2023/03/19 10:34:49;;;;;;;15.55;4.72;;;;;;;11.70;100.00;101206.53;5114149;27;20036;-73
2023/03/19 10:37:22;;;;;;;15.75;4.70;;;;;;;11.71;100.00;101208.16;5113336;28;20529;-74
2023/03/19 10:39:50;;;;;;;14.75;4.68;;;;;;;11.75;100.00;101214.81;5108836;28;20027;-75
2023/03/19 10:42:38;;;;;;;21.15;7.03;;;;;;;11.78;100.00;101206.22;5112951;28;20024;-75
2023/03/19 10:45:26;;;;;;;15.77;4.72;;;;;;;11.80;100.00;101206.81;5113278;27;20467;-75
2023/03/19 10:47:54;;;;;;;14.70;4.85;;;;;;;11.77;100.00;101211.88;5093638;27;20529;-75
2023/03/19 10:50:26;;;;;;;15.05;5.00;;;;;;;11.81;100.00;101213.09;5094724;28;20170;-75
2023/03/19 10:53:03;;;;;;;16.45;5.93;;;;;;;11.85;100.00;101215.13;5093326;28;20020;-75
2023/03/19 10:55:30;;;;;;;14.32;5.00;;;;;;;11.95;100.00;101220.06;5102208;27;20024;-75
2023/03/19 10:58:15;;;;;;;14.68;4.85;;;;;;;12.00;100.00;101225.66;5093157;28;20115;-75
2023/03/19 11:00:45;;;;;;;15.38;4.65;;;;;;;12.08;100.00;101221.81;5090739;28;20028;-75
2023/03/19 11:03:29;;;;;;;16.02;5.18;;;;;;;12.12;100.00;101222.16;5094868;28;20470;-75
2023/03/19 11:06:25;;;;;;;19.10;5.45;;;;;;;12.14;100.00;101226.31;5108936;28;20062;-75
2023/03/19 11:08:57;;;;;;;11.13;4.05;;;;;;;12.12;100.00;101220.28;5111322;28;20115;-75
2023/03/19 11:11:33;;;;;;;14.18;4.57;;;;;;;12.15;100.00;101221.72;5113399;28;20024;-75
2023/03/19 11:14:08;;;;;;;11.18;4.35;;;;;;;12.11;100.00;101229.50;5113270;28;20031;-75
2023/03/19 11:17:01;;;;;;;11.43;4.43;;;;;;;12.14;100.00;101228.19;5114651;28;20023;-75
2023/03/19 11:19:29;;;;;;;14.57;6.07;;;;;;;12.13;100.00;101227.38;5100301;27;20032;-75
2023/03/19 11:22:00;;;;;;;15.75;8.05;;;;;;;12.13;100.00;101232.78;5113183;28;20039;-75
2023/03/19 11:24:25;;;;;;;14.13;8.88;;;;;;;12.11;100.00;101234.91;5112833;28;20026;-76
2023/03/19 11:26:55;;;;;;;19.90;9.55;;;;;;;12.07;100.00;101224.75;5113439;28;20031;-75
2023/03/19 11:29:21;;;;;;;15.63;9.27;;;;;;;12.02;100.00;101231.66;5114054;28;20378;-75